createdAt,value
2023-04-14T06:45:58.769Z,6.10
2023-04-14T06:48:26.049Z,6.20
2023-04-14T06:50:56.951Z,6.30
2023-04-14T06:53:23.871Z,6.50
2023-04-14T06:55:59.222Z,6.60
2023-04-14T06:58:27.678Z,6.80
2023-04-14T07:00:57.932Z,7.00
2023-04-14T07:03:25.541Z,7.10
2023-04-14T07:05:52.998Z,7.20
2023-04-14T07:08:20.492Z,7.30
2023-04-14T07:10:47.836Z,7.30
2023-04-14T07:13:14.391Z,7.30
2023-04-14T07:15:46.259Z,7.40
2023-04-14T07:18:12.809Z,7.50
2023-04-14T07:20:39.332Z,7.60
2023-04-14T07:23:05.940Z,7.60
2023-04-14T07:25:36.532Z,7.80
2023-04-14T07:28:04.711Z,7.90
2023-04-14T07:30:31.749Z,7.90
2023-04-14T07:32:58.559Z,8.00
2023-04-14T07:35:26.213Z,8.30
2023-04-14T07:37:52.915Z,8.60
2023-04-14T07:40:19.920Z,8.80
2023-04-14T07:42:49.332Z,8.90
2023-04-14T07:45:16.178Z,8.90
2023-04-14T07:47:42.701Z,9.00
2023-04-14T07:50:09.884Z,9.00
2023-04-14T07:52:37.009Z,9.00
2023-04-14T07:55:04.538Z,9.10
2023-04-14T07:57:31.152Z,9.10
2023-04-14T07:59:57.669Z,9.00
2023-04-14T08:02:24.271Z,9.00
2023-04-14T08:04:50.961Z,9.20
2023-04-14T08:07:17.539Z,9.40
2023-04-14T08:09:44.085Z,9.50
2023-04-14T08:12:10.677Z,9.50
2023-04-14T08:14:37.427Z,9.50
2023-04-14T08:17:03.979Z,9.60
2023-04-14T08:19:31.369Z,9.80
2023-04-14T08:21:57.960Z,9.60
2023-04-14T08:24:24.575Z,9.60
2023-04-14T08:26:51.290Z,9.60
2023-04-14T08:29:17.914Z,9.60
2023-04-14T08:31:44.482Z,9.80
2023-04-14T08:34:11.141Z,9.80
2023-04-14T08:36:38.553Z,9.90
2023-04-14T08:39:05.130Z,10.00
2023-04-14T08:41:34.645Z,10.00
2023-04-14T08:44:01.603Z,10.10
2023-04-14T08:46:28.536Z,10.00
2023-04-14T08:49:02.246Z,10.00
2023-04-14T08:51:34.868Z,10.00
2023-04-14T08:54:04.286Z,10.00
2023-04-14T08:56:34.439Z,10.10
2023-04-14T08:59:01.834Z,10.00
2023-04-14T09:01:29.782Z,10.20
2023-04-14T09:03:57.728Z,10.30
2023-04-14T09:06:25.296Z,10.30
2023-04-14T09:08:52.749Z,10.20
2023-04-14T09:11:19.584Z,10.30
2023-04-14T09:13:49.342Z,10.50
2023-04-14T09:16:17.492Z,10.50
2023-04-14T09:18:47.399Z,10.80
2023-04-14T09:21:33.010Z,10.90
2023-04-14T09:24:03.884Z,10.80
2023-04-14T09:26:30.507Z,10.90
2023-04-14T09:28:57.074Z,10.90
2023-04-14T09:31:24.699Z,10.80
2023-04-14T09:33:53.286Z,10.90
2023-04-14T09:36:22.282Z,11.10
2023-04-14T09:38:50.433Z,11.10
2023-04-14T09:41:27.948Z,11.10
2023-04-14T09:43:54.570Z,11.00
2023-04-14T09:46:21.616Z,11.30
2023-04-14T09:48:52.268Z,11.40
2023-04-14T09:51:23.364Z,11.60
2023-04-14T09:53:52.929Z,11.50
2023-04-14T09:56:20.704Z,11.70
2023-04-14T09:58:50.261Z,11.70
2023-04-14T10:01:20.431Z,11.90
2023-04-14T10:03:48.534Z,12.10
2023-04-14T10:06:17.367Z,12.00
2023-04-14T10:08:48.856Z,12.00
2023-04-14T10:11:29.323Z,12.30
2023-04-14T10:14:01.178Z,12.30
2023-04-14T10:16:27.826Z,12.10
2023-04-14T10:18:55.215Z,12.10
2023-04-14T10:21:25.060Z,12.20
2023-04-14T10:23:52.168Z,12.30
2023-04-14T10:26:19.485Z,12.30
2023-04-14T10:28:54.445Z,12.40
2023-04-14T10:31:26.418Z,13.10
2023-04-14T10:33:53.162Z,13.00
2023-04-14T10:36:28.337Z,12.90
2023-04-14T10:39:03.343Z,12.90
2023-04-14T10:41:51.225Z,12.70
2023-04-14T10:44:28.363Z,12.80
2023-04-14T10:46:56.678Z,12.70
2023-04-14T10:49:33.695Z,12.70
2023-04-14T10:52:06.376Z,12.70
2023-04-14T10:54:49.804Z,12.50
2023-04-14T10:57:17.595Z,12.60
2023-04-14T10:59:47.319Z,12.40
2023-04-14T11:02:33.698Z,12.30
2023-04-14T11:05:05.329Z,12.90
2023-04-14T11:07:38.382Z,13.10
2023-04-14T11:10:17.617Z,13.70
2023-04-14T11:12:45.784Z,14.20
2023-04-14T11:15:12.680Z,14.80
2023-04-14T11:17:40.688Z,14.40
2023-04-14T11:20:18.537Z,14.30
2023-04-14T11:22:46.779Z,14.30
2023-04-14T11:25:20.685Z,13.70
2023-04-14T11:27:48.848Z,13.40
2023-04-14T11:30:17.400Z,13.50
2023-04-14T11:32:48.323Z,13.40
2023-04-14T11:35:15.991Z,13.10
2023-04-14T11:37:43.384Z,13.30
2023-04-14T11:40:12.128Z,13.50
2023-04-14T11:42:43.548Z,13.60
2023-04-14T11:45:10.705Z,13.40
2023-04-14T11:47:37.275Z,13.30
2023-04-14T11:50:05.582Z,13.50
2023-04-14T11:52:34.480Z,13.90
2023-04-14T11:55:01.899Z,14.10
2023-04-14T11:57:28.581Z,14.00
2023-04-14T11:59:56.453Z,14.00
2023-04-14T12:02:23.126Z,14.20
2023-04-14T12:04:51.066Z,14.40
2023-04-14T12:07:19.890Z,14.60
2023-04-14T12:09:48.962Z,14.90
2023-04-14T12:12:17.300Z,15.00
2023-04-14T12:14:46.004Z,14.60
2023-04-14T12:17:15.197Z,14.70
2023-04-14T12:19:42.337Z,14.80
2023-04-14T12:22:09.548Z,14.70
2023-04-14T12:24:37.400Z,14.80
2023-04-14T12:27:06.172Z,14.90
2023-04-14T12:29:33.600Z,14.40
2023-04-14T12:32:01.524Z,14.80
2023-04-14T12:34:29.784Z,15.00
2023-04-14T12:36:56.556Z,14.80
2023-04-14T12:39:25.573Z,14.70
2023-04-14T12:41:52.316Z,14.60
2023-04-14T12:44:20.676Z,14.70
2023-04-14T12:46:51.574Z,14.30
2023-04-14T12:49:37.847Z,14.50
2023-04-14T12:52:05.357Z,14.50
2023-04-14T12:54:48.743Z,14.80
2023-04-14T12:57:15.331Z,14.80
2023-04-14T12:59:43.014Z,14.70
2023-04-14T13:02:10.139Z,15.10
2023-04-14T13:04:36.785Z,15.30
2023-04-14T13:07:03.407Z,15.30
2023-04-14T13:09:31.551Z,15.50
2023-04-14T13:11:58.527Z,15.10
2023-04-14T13:14:25.071Z,15.00
2023-04-14T13:16:52.871Z,15.10
2023-04-14T13:19:20.815Z,15.30
2023-04-14T13:21:47.424Z,15.60
2023-04-14T13:24:14.032Z,15.50
2023-04-14T13:26:40.886Z,15.30
2023-04-14T13:29:07.699Z,15.30
2023-04-14T13:31:34.321Z,15.00
2023-04-14T13:34:00.984Z,14.60
2023-04-14T13:36:27.615Z,15.10
2023-04-14T13:38:56.521Z,15.00
2023-04-14T13:41:24.360Z,15.40
2023-04-14T13:43:50.895Z,15.00
2023-04-14T13:46:19.077Z,15.30
2023-04-14T13:48:46.319Z,15.60
2023-04-14T13:51:12.972Z,15.10
2023-04-14T13:53:39.768Z,15.00
2023-04-14T13:56:06.454Z,15.20
2023-04-14T13:58:33.138Z,15.60
2023-04-14T14:01:09.182Z,15.60
2023-04-14T14:03:38.608Z,15.40
2023-04-14T14:06:05.459Z,15.00
2023-04-14T14:08:32.243Z,15.20
2023-04-14T14:10:58.783Z,15.90
2023-04-14T14:13:25.828Z,15.80
2023-04-14T14:15:52.866Z,15.90
2023-04-14T14:18:19.533Z,15.90
2023-04-14T14:20:47.047Z,15.80
2023-04-14T14:23:15.523Z,15.60
2023-04-14T14:25:42.830Z,15.40
2023-04-14T14:28:09.448Z,15.70
2023-04-14T14:30:36.259Z,15.80
2023-04-14T14:33:03.395Z,15.70
2023-04-14T14:35:30.287Z,15.60
2023-04-14T14:37:57.699Z,15.50
2023-04-14T14:40:25.532Z,15.10
2023-04-14T14:42:52.465Z,15.30
2023-04-14T14:45:30.561Z,15.10
2023-04-14T14:47:58.108Z,15.30
2023-04-14T14:50:24.701Z,15.60
2023-04-14T14:52:51.322Z,15.40
2023-04-14T14:55:17.956Z,15.60
2023-04-14T14:57:44.501Z,15.60
2023-04-14T15:00:11.522Z,14.50
2023-04-14T15:02:38.618Z,13.90
2023-04-14T15:05:07.204Z,14.10
2023-04-14T15:07:33.885Z,14.50
2023-04-14T15:10:01.545Z,15.00
2023-04-14T15:12:28.197Z,15.00
2023-04-14T15:14:54.753Z,15.20
2023-04-14T15:17:21.348Z,15.40
2023-04-14T15:19:48.066Z,15.80
2023-04-14T15:22:14.809Z,15.40
2023-04-14T15:24:41.357Z,15.30
2023-04-14T15:27:07.900Z,15.50
2023-04-14T15:29:34.422Z,15.70
2023-04-14T15:32:01.226Z,16.00
2023-04-14T15:34:28.082Z,15.90
2023-04-14T15:36:54.746Z,15.80
2023-04-14T15:39:21.318Z,15.30
2023-04-14T15:41:50.212Z,15.40
2023-04-14T15:44:16.741Z,15.20
2023-04-14T15:46:43.247Z,15.00
2023-04-14T15:49:09.832Z,15.10
2023-04-14T15:51:36.644Z,15.20
2023-04-14T15:54:04.217Z,15.10
2023-04-14T15:56:31.144Z,15.00
2023-04-14T15:58:57.819Z,15.00
2023-04-14T16:01:24.404Z,14.80
2023-04-14T16:03:52.767Z,14.90
2023-04-14T16:06:19.648Z,15.00
2023-04-14T16:08:46.280Z,15.20
2023-04-14T16:11:16.509Z,15.00
2023-04-14T16:13:46.215Z,15.00
2023-04-14T16:16:14.618Z,15.00
2023-04-14T16:18:41.461Z,14.90
2023-04-14T16:21:08.442Z,15.60
2023-04-14T16:23:35.676Z,16.80
2023-04-14T16:26:02.276Z,17.40
2023-04-14T16:28:28.791Z,18.30
2023-04-14T16:45:52.863Z,16.90
2023-04-14T16:48:19.424Z,16.40
2023-04-14T16:50:49.020Z,15.70
2023-04-14T16:53:15.799Z,14.90
2023-04-14T16:55:43.421Z,14.20
2023-04-14T16:58:09.972Z,13.80
2023-04-14T17:00:37.246Z,13.50
2023-04-14T17:03:04.746Z,13.20
2023-04-14T17:05:31.575Z,13.10
2023-04-14T17:07:58.602Z,12.90
2023-04-14T17:10:26.642Z,12.80
2023-04-14T17:12:53.616Z,12.80
2023-04-14T17:15:20.185Z,12.80
2023-04-14T17:17:46.816Z,12.70
2023-04-14T17:20:14.909Z,12.60
2023-04-14T17:22:41.779Z,12.40
2023-04-14T17:25:09.474Z,12.30
2023-04-14T17:27:36.098Z,12.30
2023-04-14T17:30:04.593Z,12.10
2023-04-14T17:32:32.325Z,12.00
2023-04-14T17:34:59.271Z,11.90
2023-04-14T17:37:26.588Z,11.90
2023-04-14T17:39:53.240Z,11.70
2023-04-14T17:42:19.762Z,11.70
2023-04-14T17:44:46.677Z,11.50
2023-04-14T17:47:15.272Z,11.40
2023-04-14T17:49:42.901Z,11.30
2023-04-14T17:52:10.681Z,11.20
2023-04-14T17:54:37.980Z,10.90
2023-04-14T17:57:04.725Z,10.80
2023-04-14T17:59:31.533Z,10.80
2023-04-14T18:01:58.472Z,10.80
2023-04-14T18:04:25.371Z,10.80
2023-04-14T18:06:52.030Z,10.70
2023-04-14T18:09:18.585Z,10.50
2023-04-14T18:11:46.172Z,10.20
2023-04-14T18:14:12.714Z,9.90
2023-04-14T18:16:39.267Z,9.70
2023-04-14T18:19:05.994Z,9.50
2023-04-14T18:21:32.566Z,9.30
2023-04-14T18:26:29.768Z,8.90
2023-04-14T18:28:56.817Z,8.70
2023-04-14T18:31:23.631Z,8.60
2023-04-14T18:33:50.913Z,8.50
2023-04-14T18:36:17.605Z,8.40
2023-04-14T18:38:44.158Z,8.20
2023-04-14T18:41:11.029Z,8.20
2023-04-14T18:43:37.922Z,8.00
2023-04-14T18:46:04.476Z,7.90
